Time;durP1;ratioP1;P1;durP2;ratioP2;P2;SDS_P1;SDS_P2;PMS_P1;PMS_P2;Temp;Humidity;BMP_temperature;BMP_pressure;BME280_temperature;BME280_humidity;BME280_pressure;Samples;Min_cycle;Max_cycle;Signal;HPM_P1;HPM_P2
2021/12/03 00:00:48;;;;;;;3.40;1.38;;;1.00;83.40;;;;;;4910241;29;20410;-72
2021/12/03 00:03:14;;;;;;;9.55;2.05;;;1.00;83.10;;;;;;4909335;29;20044;-72
2021/12/03 00:05:40;;;;;;;2.60;1.00;;;1.00;83.20;;;;;;4908970;29;20099;-72
2021/12/03 00:08:07;;;;;;;5.47;1.05;;;0.90;83.60;;;;;;4909738;29;20109;-73
2021/12/03 00:10:35;;;;;;;6.85;0.77;;;0.90;83.80;;;;;;4894036;29;20115;-72
2021/12/03 00:13:03;;;;;;;3.45;1.00;;;1.00;83.80;;;;;;4909101;29;20063;-72
2021/12/03 00:15:29;;;;;;;3.45;0.75;;;1.00;83.70;;;;;;4907359;29;20151;-72
2021/12/03 00:17:55;;;;;;;6.30;1.20;;;1.00;84.00;;;;;;4909140;29;20297;-72
2021/12/03 00:20:24;;;;;;;1.25;0.80;;;1.00;84.00;;;;;;4906274;29;20079;-72
2021/12/03 00:22:52;;;;;;;4.13;1.42;;;1.00;84.00;;;;;;4910158;29;20310;-72
2021/12/03 00:25:19;;;;;;;4.10;1.50;;;1.00;84.00;;;;;;4892679;29;20095;-72
2021/12/03 00:27:45;;;;;;;4.72;0.95;;;1.00;83.90;;;;;;4908193;29;20067;-72
2021/12/03 00:30:12;;;;;;;4.28;1.30;;;1.10;84.20;;;;;;4908319;29;20059;-72
2021/12/03 00:32:39;;;;;;;6.30;1.00;;;1.10;84.20;;;;;;4910700;29;20050;-72
2021/12/03 00:35:06;;;;;;;10.20;1.33;;;1.00;84.10;;;;;;4909598;29;20131;-72
2021/12/03 00:37:32;;;;;;;7.07;1.00;;;1.10;84.20;;;;;;4912034;29;20044;-72
2021/12/03 00:39:58;;;;;;;5.85;1.35;;;1.10;83.90;;;;;;4895880;29;20451;-72
2021/12/03 00:42:26;;;;;;;5.78;1.17;;;1.10;83.90;;;;;;4911591;29;20111;-72
2021/12/03 00:44:55;;;;;;;11.85;1.10;;;1.10;84.10;;;;;;4911036;29;20130;-72
2021/12/03 00:47:22;;;;;;;11.45;1.30;;;1.10;84.10;;;;;;4902818;29;20537;-72
2021/12/03 00:49:48;;;;;;;7.57;1.27;;;1.10;84.10;;;;;;4908800;29;20116;-72
2021/12/03 00:52:14;;;;;;;15.45;1.75;;;1.00;84.20;;;;;;4910390;29;20079;-72
2021/12/03 00:54:40;;;;;;;8.35;1.05;;;1.10;84.70;;;;;;4910634;29;20040;-72
2021/12/03 00:57:06;;;;;;;7.88;1.25;;;1.10;85.00;;;;;;4912651;29;20048;-72
2021/12/03 00:59:32;;;;;;;5.45;1.45;;;1.10;84.90;;;;;;4904474;29;20115;-72
2021/12/03 01:01:58;;;;;;;10.55;1.60;;;1.10;84.90;;;;;;4908101;29;20043;-72
2021/12/03 01:04:23;;;;;;;4.40;0.90;;;1.10;85.00;;;;;;4910489;29;20051;-72
2021/12/03 01:06:49;;;;;;;4.13;1.10;;;1.20;85.00;;;;;;4909943;29;20055;-72
2021/12/03 01:09:15;;;;;;;6.22;1.40;;;1.20;85.20;;;;;;4907171;29;20060;-72
2021/12/03 01:11:42;;;;;;;4.15;0.90;;;1.20;85.20;;;;;;4911810;29;20390;-72
2021/12/03 01:14:08;;;;;;;1.63;0.32;;;1.30;85.20;;;;;;4895300;29;20057;-72
2021/12/03 01:16:34;;;;;;;2.40;0.60;;;1.30;85.20;;;;;;4895189;29;20127;-72
2021/12/03 01:19:01;;;;;;;3.70;0.80;;;1.30;85.20;;;;;;4895691;29;20060;-72
2021/12/03 01:21:28;;;;;;;7.07;1.00;;;1.40;85.20;;;;;;4908885;29;20051;-72
2021/12/03 01:23:55;;;;;;;2.92;0.88;;;1.40;85.30;;;;;;4910036;29;20055;-73
2021/12/03 01:26:22;;;;;;;3.85;0.73;;;1.50;85.50;;;;;;4909793;29;20051;-72
2021/12/03 01:28:48;;;;;;;5.75;0.98;;;1.50;85.30;;;;;;4909519;29;20063;-73
2021/12/03 01:31:15;;;;;;;2.60;0.88;;;1.60;85.20;;;;;;4911916;29;20799;-73
2021/12/03 01:33:42;;;;;;;4.60;0.93;;;1.60;85.10;;;;;;4894486;29;20051;-73
2021/12/03 01:36:08;;;;;;;5.45;0.80;;;1.70;85.90;;;;;;4910884;29;20165;-72
2021/12/03 01:38:34;;;;;;;2.58;0.43;;;1.70;84.80;;;;;;4898170;29;20438;-72
2021/12/03 01:41:00;;;;;;;2.03;0.70;;;1.80;84.60;;;;;;4894469;29;20782;-73
2021/12/03 01:43:26;;;;;;;1.52;0.85;;;1.90;84.30;;;;;;4909899;29;20573;-73
2021/12/03 01:45:56;;;;;;;4.03;1.00;;;1.90;84.00;;;;;;4910276;29;20051;-73
2021/12/03 01:48:22;;;;;;;4.60;1.20;;;1.90;83.80;;;;;;4907908;29;20048;-72
2021/12/03 01:50:48;;;;;;;8.10;1.75;;;1.90;83.40;;;;;;4923820;29;20378;-73
2021/12/03 01:53:18;;;;;;;5.40;1.63;;;1.90;83.70;;;;;;4906353;29;20114;-72
2021/12/03 01:55:46;;;;;;;11.68;2.63;;;1.90;83.80;;;;;;4905536;29;20042;-72
2021/12/03 01:58:13;;;;;;;10.82;2.25;;;1.90;84.20;;;;;;4926294;29;20263;-72
2021/12/03 02:01:02;;;;;;;10.50;1.45;;;1.90;84.20;;;;;;4901750;29;20043;-72
2021/12/03 02:03:32;;;;;;;8.07;1.85;;;1.90;84.00;;;;;;4907425;29;20051;-72
2021/12/03 02:05:59;;;;;;;8.50;1.20;;;1.80;84.30;;;;;;4909143;29;20056;-73
2021/12/03 02:08:25;;;;;;;6.53;1.05;;;1.90;84.20;;;;;;4909464;29;20090;-73
2021/12/03 02:10:51;;;;;;;8.40;1.27;;;1.90;84.10;;;;;;4907647;29;20434;-73
2021/12/03 02:13:17;;;;;;;4.05;0.90;;;1.90;84.30;;;;;;4898824;29;20052;-74
2021/12/03 02:15:44;;;;;;;1.42;1.00;;;1.80;85.20;;;;;;4886071;29;20136;-73
2021/12/03 02:18:13;;;;;;;2.70;0.90;;;1.80;84.20;;;;;;4904166;29;20530;-74
2021/12/03 02:20:44;;;;;;;10.50;1.23;;;1.80;84.40;;;;;;4910037;29;20590;-74
2021/12/03 02:23:10;;;;;;;6.18;1.23;;;1.70;84.30;;;;;;4921928;29;20089;-74
2021/12/03 02:25:36;;;;;;;2.90;1.05;;;1.70;84.50;;;;;;4894591;29;20091;-74
2021/12/03 02:28:02;;;;;;;2.90;0.95;;;1.60;84.60;;;;;;4906961;29;20087;-74
2021/12/03 02:30:28;;;;;;;9.30;1.15;;;1.60;84.80;;;;;;4904584;29;20060;-73
2021/12/03 02:32:54;;;;;;;3.50;1.30;;;1.60;84.90;;;;;;4894845;29;20415;-74
2021/12/03 02:35:22;;;;;;;7.55;1.30;;;1.60;85.10;;;;;;4904683;29;20041;-74
2021/12/03 02:37:48;;;;;;;1.50;0.80;;;1.60;86.20;;;;;;4895091;29;20511;-74
2021/12/03 02:40:14;;;;;;;4.00;1.23;;;1.60;85.40;;;;;;4901864;29;20040;-74
2021/12/03 02:42:41;;;;;;;12.45;1.30;;;1.60;85.60;;;;;;4909375;29;20229;-74
2021/12/03 02:45:08;;;;;;;3.22;1.00;;;1.60;85.60;;;;;;4907777;29;20059;-74
2021/12/03 02:47:35;;;;;;;2.22;0.80;;;1.60;85.50;;;;;;4902436;29;20055;-74
2021/12/03 02:50:01;;;;;;;2.60;0.90;;;1.70;85.20;;;;;;4904552;29;20052;-74
2021/12/03 02:52:27;;;;;;;8.35;1.05;;;1.70;85.00;;;;;;4908528;29;20102;-74
2021/12/03 02:54:52;;;;;;;3.78;0.82;;;1.70;85.00;;;;;;4908460;29;20451;-74
2021/12/03 02:57:18;;;;;;;2.00;1.13;;;1.80;85.30;;;;;;4908099;29;20463;-74
2021/12/03 02:59:44;;;;;;;2.58;1.05;;;1.90;85.40;;;;;;4908662;29;20043;-74
2021/12/03 03:02:10;;;;;;;8.60;1.33;;;1.90;85.50;;;;;;4913394;29;20075;-74
2021/12/03 03:04:36;;;;;;;4.47;1.10;;;1.90;85.30;;;;;;4909125;29;20044;-75
2021/12/03 03:07:01;;;;;;;9.07;1.30;;;1.80;85.00;;;;;;4924440;29;20492;-75
2021/12/03 03:09:27;;;;;;;8.02;0.90;;;1.70;84.80;;;;;;4891688;29;20055;-75
2021/12/03 03:11:53;;;;;;;11.02;2.03;;;1.60;84.90;;;;;;4893408;29;20134;-75
2021/12/03 03:14:19;;;;;;;9.73;1.33;;;1.60;85.10;;;;;;4908489;29;20055;-75
2021/12/03 03:16:46;;;;;;;4.43;1.00;;;1.60;85.10;;;;;;4908666;29;20052;-75
2021/12/03 03:19:15;;;;;;;7.43;1.55;;;1.50;85.20;;;;;;4901097;29;20763;-74
2021/12/03 03:21:42;;;;;;;2.78;1.38;;;1.50;85.50;;;;;;4908752;29;20119;-75
2021/12/03 03:24:09;;;;;;;5.78;1.15;;;1.40;85.70;;;;;;4908228;29;20079;-75
2021/12/03 03:26:38;;;;;;;4.53;1.92;;;1.50;86.10;;;;;;4888940;29;20474;-75
2021/12/03 03:29:06;;;;;;;8.70;1.52;;;1.40;86.20;;;;;;4901570;29;20059;-75
2021/12/03 03:31:36;;;;;;;10.82;1.45;;;1.50;86.40;;;;;;4908926;29;20082;-75
2021/12/03 03:34:04;;;;;;;5.93;1.48;;;1.50;86.30;;;;;;4908492;29;20459;-75
2021/12/03 03:36:35;;;;;;;2.58;1.33;;;1.50;86.30;;;;;;4897782;29;20130;-75
2021/12/03 03:39:03;;;;;;;2.90;1.20;;;1.50;86.40;;;;;;4905633;29;20115;-75
2021/12/03 03:41:29;;;;;;;8.63;1.60;;;1.50;86.40;;;;;;4905478;29;20135;-75
2021/12/03 03:43:54;;;;;;;7.43;1.70;;;1.50;86.20;;;;;;4906557;29;20440;-75
2021/12/03 03:46:20;;;;;;;8.73;1.52;;;1.50;86.10;;;;;;4893333;29;20052;-75
2021/12/03 03:48:46;;;;;;;2.35;1.48;;;1.50;86.10;;;;;;4907958;29;20125;-75
2021/12/03 03:51:12;;;;;;;11.57;1.83;;;1.40;86.10;;;;;;4904177;29;20133;-75
2021/12/03 03:53:40;;;;;;;12.57;1.98;;;1.40;86.20;;;;;;4922578;29;20052;-75
2021/12/03 03:56:10;;;;;;;7.35;1.80;;;1.40;86.40;;;;;;4908104;29;20491;-75
2021/12/03 03:58:41;;;;;;;11.60;2.70;;;1.30;86.40;;;;;;4908502;29;20043;-75
2021/12/03 04:01:08;;;;;;;10.13;2.85;;;1.30;86.60;;;;;;4899978;29;20384;-75
2021/12/03 04:03:34;;;;;;;9.05;2.13;;;1.30;86.80;;;;;;4910840;29;20041;-76
2021/12/03 04:06:01;;;;;;;3.58;2.58;;;1.30;86.90;;;;;;4896167;29;20044;-75
2021/12/03 04:08:29;;;;;;;10.70;3.03;;;1.30;86.80;;;;;;4912205;29;20568;-75
2021/12/03 04:11:00;;;;;;;7.05;2.78;;;1.30;86.90;;;;;;4911191;29;20394;-76
2021/12/03 04:13:28;;;;;;;9.85;3.50;;;1.20;86.90;;;;;;4905875;29;20414;-75
2021/12/03 04:15:54;;;;;;;6.13;3.72;;;1.20;87.00;;;;;;4907455;29;20040;-75
2021/12/03 04:18:20;;;;;;;11.13;4.70;;;1.20;87.10;;;;;;4907921;29;20131;-75
2021/12/03 04:20:46;;;;;;;12.80;4.65;;;1.20;87.30;;;;;;4908942;29;20506;-76
2021/12/03 04:23:17;;;;;;;16.73;5.25;;;1.20;87.50;;;;;;4907044;29;20048;-75
2021/12/03 04:25:43;;;;;;;;;;;1.30;87.60;;;;;;4905655;29;20440;-76
2021/12/03 04:28:08;;;;;;;7.72;4.53;;;1.20;87.70;;;;;;4909498;29;19927;-76
2021/12/03 04:30:34;;;;;;;17.45;5.65;;;1.30;87.80;;;;;;4911668;29;20395;-75
2021/12/03 04:33:01;;;;;;;11.73;6.95;;;1.30;87.90;;;;;;4922915;29;20523;-75
2021/12/03 04:35:27;;;;;;;16.10;6.18;;;1.30;87.90;;;;;;4900480;29;20046;-75
2021/12/03 04:37:53;;;;;;;13.13;7.18;;;1.30;88.00;;;;;;4888153;29;20470;-75
2021/12/03 04:40:20;;;;;;;19.23;6.88;;;1.30;88.00;;;;;;4927026;29;20044;-75
2021/12/03 04:42:47;;;;;;;14.95;8.60;;;1.30;88.20;;;;;;4902696;29;20047;-75
2021/12/03 04:45:15;;;;;;;14.80;7.55;;;1.30;88.20;;;;;;4910040;29;20094;-75
2021/12/03 04:47:41;;;;;;;14.48;6.47;;;1.30;88.00;;;;;;4919070;29;20529;-76
2021/12/03 04:50:09;;;;;;;16.95;8.43;;;1.30;88.00;;;;;;4900354;29;20052;-75
2021/12/03 04:52:35;;;;;;;17.70;9.55;;;1.30;88.00;;;;;;4910546;29;20082;-75
2021/12/03 04:55:02;;;;;;;18.33;8.68;;;1.30;88.10;;;;;;4910032;29;20079;-75
2021/12/03 04:57:27;;;;;;;15.55;8.40;;;1.30;88.00;;;;;;4906010;29;20455;-75
2021/12/03 04:59:53;;;;;;;19.90;8.57;;;1.30;88.00;;;;;;4905846;29;20036;-75
2021/12/03 05:02:21;;;;;;;16.10;8.50;;;1.30;87.90;;;;;;4877632;29;20091;-75
2021/12/03 05:04:48;;;;;;;12.95;7.30;;;1.30;87.80;;;;;;4910506;29;20056;-75
2021/12/03 05:09:59;;;;;;;18.35;8.45;;;1.30;87.90;;;;;;4910592;29;20534;-75
2021/12/03 05:12:25;;;;;;;16.52;8.93;;;1.30;87.80;;;;;;4899573;29;20063;-75
2021/12/03 05:14:51;;;;;;;18.25;7.80;;;1.30;87.70;;;;;;4894160;29;20044;-75
2021/12/03 05:17:17;;;;;;;13.43;8.05;;;1.20;87.50;;;;;;4895442;29;20140;-75
2021/12/03 05:19:42;;;;;;;19.05;9.02;;;1.20;87.50;;;;;;4907675;29;20550;-75
2021/12/03 05:22:08;;;;;;;16.80;8.32;;;1.20;87.40;;;;;;4910602;29;20110;-75
2021/12/03 05:24:34;;;;;;;19.90;9.10;;;1.20;87.20;;;;;;4895011;29;20590;-75
2021/12/03 05:27:01;;;;;;;11.25;8.48;;;1.20;87.20;;;;;;4907985;29;20064;-75
2021/12/03 05:29:27;;;;;;;15.32;8.43;;;1.20;87.20;;;;;;4910785;29;20048;-75
2021/12/03 05:31:53;;;;;;;8.93;6.70;;;1.20;87.30;;;;;;4908539;29;20044;-74
2021/12/03 05:34:20;;;;;;;12.02;6.95;;;1.30;87.10;;;;;;4899084;29;20092;-75
2021/12/03 05:36:46;;;;;;;8.93;6.43;;;1.30;86.90;;;;;;4898516;29;20056;-75
2021/12/03 05:39:12;;;;;;;14.55;7.22;;;1.30;86.80;;;;;;4910779;29;20439;-74
2021/12/03 05:41:38;;;;;;;11.45;6.65;;;1.30;86.60;;;;;;4890416;29;20115;-74
2021/12/03 05:44:04;;;;;;;8.18;5.05;;;1.30;86.40;;;;;;4908466;29;20151;-75
2021/12/03 05:46:31;;;;;;;13.75;7.18;;;1.30;86.30;;;;;;4894878;29;20084;-75
2021/12/03 05:48:57;;;;;;;9.60;6.30;;;1.30;86.20;;;;;;4909896;29;20099;-75
2021/12/03 05:51:25;;;;;;;9.73;5.55;;;1.30;86.30;;;;;;4905039;29;20041;-75
2021/12/03 05:53:51;;;;;;;10.75;7.18;;;1.30;86.30;;;;;;4900384;29;20086;-75
2021/12/03 05:56:17;;;;;;;11.02;7.18;;;1.30;86.20;;;;;;4907901;29;20052;-75
2021/12/03 05:58:44;;;;;;;10.05;6.22;;;1.30;86.10;;;;;;4892645;29;20403;-75
2021/12/03 06:01:10;;;;;;;14.63;7.70;;;1.30;86.10;;;;;;4910905;29;20049;-74
2021/12/03 06:03:36;;;;;;;10.55;7.10;;;1.30;86.20;;;;;;4913152;29;20315;-75
2021/12/03 06:06:02;;;;;;;13.32;6.95;;;1.30;86.00;;;;;;4895467;29;20044;-75
2021/12/03 06:08:28;;;;;;;7.57;5.80;;;1.30;86.00;;;;;;4905091;29;20044;-74
2021/12/03 06:10:54;;;;;;;10.00;5.78;;;1.30;86.00;;;;;;4919645;29;20063;-74
2021/12/03 06:13:20;;;;;;;7.10;4.20;;;1.30;85.90;;;;;;4908409;29;20044;-74
2021/12/03 06:15:46;;;;;;;8.73;4.35;;;1.30;85.70;;;;;;4885860;29;20480;-74
2021/12/03 06:18:11;;;;;;;4.90;3.40;;;1.40;85.70;;;;;;4903758;29;20135;-74
2021/12/03 06:20:37;;;;;;;12.20;5.68;;;1.40;85.50;;;;;;4906578;29;20040;-75
2021/12/03 06:23:03;;;;;;;8.00;5.50;;;1.40;85.20;;;;;;4899113;29;20127;-75
2021/12/03 06:25:29;;;;;;;8.70;4.93;;;1.40;84.90;;;;;;4903602;29;20044;-74
2021/12/03 06:27:57;;;;;;;8.75;5.03;;;1.40;84.80;;;;;;4906857;29;20104;-75
2021/12/03 06:30:24;;;;;;;5.20;3.72;;;1.40;84.60;;;;;;4909628;29;20265;-75
2021/12/03 06:32:51;;;;;;;12.88;5.53;;;1.40;84.60;;;;;;4893097;29;20052;-75
2021/12/03 06:35:17;;;;;;;6.10;5.10;;;1.40;84.50;;;;;;4909277;29;20052;-74
2021/12/03 06:37:44;;;;;;;10.15;5.43;;;1.40;84.70;;;;;;4901351;29;20075;-75
2021/12/03 06:40:14;;;;;;;13.02;6.07;;;1.40;84.70;;;;;;4908398;29;20530;-75
2021/12/03 06:42:39;;;;;;;6.70;4.15;;;1.30;84.90;;;;;;4909295;29;20055;-74
2021/12/03 06:45:06;;;;;;;8.38;3.78;;;1.30;85.10;;;;;;4892859;29;20044;-74
2021/12/03 06:47:34;;;;;;;10.38;6.10;;;1.30;85.10;;;;;;4891482;29;20172;-75
2021/12/03 06:50:02;;;;;;;6.53;4.45;;;1.30;85.40;;;;;;4908683;29;20062;-75
2021/12/03 06:52:28;;;;;;;11.15;5.55;;;1.30;85.60;;;;;;4903675;29;20520;-75
2021/12/03 06:55:00;;;;;;;11.23;5.45;;;1.30;85.80;;;;;;4889398;29;20067;-75
2021/12/03 06:57:26;;;;;;;7.18;5.25;;;1.30;86.10;;;;;;4908913;29;20441;-74
2021/12/03 06:59:51;;;;;;;12.50;6.05;;;1.30;86.30;;;;;;4892849;29;20044;-74
2021/12/03 07:02:17;;;;;;;11.95;6.28;;;1.30;86.30;;;;;;4913790;29;20051;-75
2021/12/03 07:04:44;;;;;;;13.18;6.30;;;1.40;86.20;;;;;;4907701;29;20040;-74
2021/12/03 07:07:15;;;;;;;10.25;4.93;;;1.40;86.20;;;;;;4903765;29;20055;-75
2021/12/03 07:09:41;;;;;;;9.43;4.57;;;1.40;86.30;;;;;;4900265;29;20048;-75
2021/12/03 07:12:08;;;;;;;12.48;5.97;;;1.40;86.30;;;;;;4908905;29;20563;-75
2021/12/03 07:14:34;;;;;;;10.25;6.20;;;1.50;86.30;;;;;;4908750;29;20376;-75
2021/12/03 07:17:05;;;;;;;12.63;6.95;;;1.50;86.20;;;;;;4899920;29;20055;-75
2021/12/03 07:19:30;;;;;;;13.38;5.72;;;1.50;86.30;;;;;;4907638;29;20036;-75
2021/12/03 07:21:56;;;;;;;8.60;5.78;;;1.50;86.20;;;;;;4893237;29;20465;-75
2021/12/03 07:24:22;;;;;;;13.75;6.03;;;1.60;86.20;;;;;;4906790;29;20051;-75
2021/12/03 07:26:48;;;;;;;7.78;4.25;;;1.60;86.20;;;;;;4908656;29;20052;-75
2021/12/03 07:29:13;;;;;;;8.38;5.40;;;1.60;86.50;;;;;;4915281;29;20139;-75
2021/12/03 07:31:39;;;;;;;5.40;3.47;;;1.60;86.70;;;;;;4908602;29;20051;-76
2021/12/03 07:34:05;;;;;;;6.68;4.30;;;1.70;86.80;;;;;;4883947;29;20040;-76
2021/12/03 07:36:30;;;;;;;15.35;6.55;;;1.70;87.00;;;;;;4907091;29;20079;-76
2021/12/03 07:38:56;;;;;;;7.88;4.78;;;1.70;87.00;;;;;;4907775;29;20072;-77
2021/12/03 07:41:22;;;;;;;10.88;4.57;;;1.80;87.10;;;;;;4907724;29;20048;-76
2021/12/03 07:43:48;;;;;;;13.25;5.53;;;1.80;87.00;;;;;;4908877;29;20424;-76
2021/12/03 07:46:15;;;;;;;12.65;5.32;;;1.80;86.80;;;;;;4907322;29;20100;-77
2021/12/03 07:48:46;;;;;;;13.65;4.45;;;1.90;86.80;;;;;;4884071;29;20091;-76
2021/12/03 07:51:14;;;;;;;13.85;4.90;;;1.90;86.60;;;;;;4904105;29;20041;-76
2021/12/03 07:53:39;;;;;;;11.70;6.00;;;1.80;86.50;;;;;;4907122;29;20522;-76
2021/12/03 07:56:05;;;;;;;11.90;4.78;;;1.90;86.50;;;;;;4908376;29;20032;-77
2021/12/03 07:58:31;;;;;;;11.60;5.32;;;1.90;86.60;;;;;;4907316;29;20575;-77
2021/12/03 08:00:58;;;;;;;3.25;1.80;;;1.80;86.60;;;;;;4909001;29;20100;-76
2021/12/03 08:03:24;;;;;;;9.15;4.45;;;1.80;86.60;;;;;;4876617;29;20051;-77
2021/12/03 08:05:49;;;;;;;8.35;4.00;;;1.90;86.70;;;;;;4907824;29;20044;-77
2021/12/03 08:08:23;;;;;;;3.70;1.98;;;1.90;86.60;;;;;;4907203;29;20302;-76
2021/12/03 08:10:50;;;;;;;10.45;4.90;;;1.90;86.60;;;;;;4920156;29;20082;-77
2021/12/03 08:13:16;;;;;;;5.35;2.88;;;2.00;86.40;;;;;;4902269;29;20048;-77
2021/12/03 08:15:43;;;;;;;1.73;1.25;;;2.00;86.40;;;;;;4907818;29;20055;-77
2021/12/03 08:18:09;;;;;;;12.40;4.28;;;2.00;86.30;;;;;;4908207;29;20518;-78
2021/12/03 08:20:35;;;;;;;9.98;3.75;;;2.10;86.20;;;;;;4891800;29;20032;-77
2021/12/03 08:23:02;;;;;;;7.57;3.83;;;2.10;86.10;;;;;;4908438;29;20079;-77
2021/12/03 08:25:31;;;;;;;7.88;3.75;;;2.10;86.00;;;;;;4907495;29;20127;-77
2021/12/03 08:27:57;;;;;;;6.55;2.60;;;2.20;86.00;;;;;;4906793;29;20056;-77
2021/12/03 08:30:25;;;;;;;2.97;2.65;;;2.20;86.00;;;;;;4907340;29;20431;-76
2021/12/03 08:32:51;;;;;;;7.47;3.83;;;2.20;86.00;;;;;;4908354;29;20072;-77
2021/12/03 08:35:17;;;;;;;8.73;3.90;;;2.20;85.90;;;;;;4907169;29;20086;-76
2021/12/03 08:37:47;;;;;;;9.02;2.63;;;2.20;85.80;;;;;;4892055;29;20091;-77
2021/12/03 08:40:13;;;;;;;11.55;5.00;;;2.30;85.80;;;;;;4907790;29;20052;-78
2021/12/03 08:42:39;;;;;;;6.30;3.38;;;2.30;85.70;;;;;;4906943;29;20048;-77
2021/12/03 08:45:05;;;;;;;9.45;3.90;;;2.40;85.50;;;;;;4907150;29;20055;-76
2021/12/03 08:47:33;;;;;;;8.75;4.68;;;2.40;85.40;;;;;;4907912;29;20044;-76
2021/12/03 08:50:00;;;;;;;5.68;3.33;;;2.40;85.20;;;;;;4908975;29;20044;-76
2021/12/03 08:52:44;;;;;;;8.45;3.47;;;2.50;85.20;;;;;;4901670;29;20743;-76
2021/12/03 08:55:10;;;;;;;9.02;4.05;;;2.50;84.80;;;;;;4895645;29;20510;-75
2021/12/03 08:57:36;;;;;;;9.07;3.75;;;2.60;84.80;;;;;;4910851;29;20052;-75
2021/12/03 09:00:12;;;;;;;1.50;1.40;;;2.60;84.70;;;;;;4885506;29;20384;-75
2021/12/03 09:02:40;;;;;;;11.02;4.78;;;2.60;84.40;;;;;;4910291;29;20048;-76
2021/12/03 09:05:07;;;;;;;8.40;4.72;;;2.60;84.30;;;;;;4925478;29;20040;-75
2021/12/03 09:07:33;;;;;;;6.97;2.95;;;2.70;84.40;;;;;;4902493;29;20566;-74
2021/12/03 09:09:59;;;;;;;11.07;5.10;;;2.70;84.50;;;;;;4910164;29;20058;-75
2021/12/03 09:12:25;;;;;;;11.63;5.47;;;2.80;84.50;;;;;;4924567;29;20040;-75
2021/12/03 09:15:11;;;;;;;8.38;4.35;;;2.80;84.40;;;;;;4926921;29;20048;-74
2021/12/03 09:23:15;;;;;;;10.75;5.90;;;2.80;83.80;;;;;;4876043;29;20048;-75
2021/12/03 09:25:51;;;;;;;13.90;6.97;;;2.80;83.90;;;;;;4907606;29;20546;-74
2021/12/03 09:28:17;;;;;;;8.95;5.55;;;2.80;84.10;;;;;;4909743;29;20072;-74
2021/12/03 09:30:44;;;;;;;14.55;6.43;;;2.80;84.10;;;;;;4909134;29;20119;-75
2021/12/03 09:33:14;;;;;;;7.80;4.07;;;2.80;84.10;;;;;;4909227;29;20123;-74
2021/12/03 09:35:45;;;;;;;17.17;7.63;;;2.90;84.30;;;;;;4908602;29;20058;-74
2021/12/03 09:38:11;;;;;;;12.27;6.45;;;2.80;84.20;;;;;;4908689;29;20135;-74
2021/12/03 09:40:39;;;;;;;11.27;6.05;;;2.90;84.20;;;;;;4893946;29;20119;-74
2021/12/03 09:43:06;;;;;;;17.52;7.80;;;2.80;84.20;;;;;;4921851;29;20092;-74
2021/12/03 09:45:32;;;;;;;23.80;9.85;;;2.90;84.20;;;;;;4877031;29;20050;-74
2021/12/03 09:48:18;;;;;;;13.98;8.10;;;2.90;84.20;;;;;;4909171;29;20642;-74
2021/12/03 09:50:44;;;;;;;15.85;7.45;;;2.90;84.10;;;;;;4924047;29;20092;-74
2021/12/03 09:55:44;;;;;;;12.45;8.02;;;2.90;84.30;;;;;;4908774;29;20142;-73
2021/12/03 09:58:43;;;;;;;18.23;7.75;;;3.00;84.40;;;;;;4893965;29;20518;-74
2021/12/03 10:01:13;;;;;;;19.98;8.02;;;3.00;84.00;;;;;;4899388;29;20545;-74
2021/12/03 10:04:06;;;;;;;22.75;7.47;;;3.10;84.10;;;;;;4891399;29;20096;-74
2021/12/03 10:14:51;;;;;;;15.57;8.00;;;3.20;83.90;;;;;;4907934;29;20051;-74
2021/12/03 10:29:04;;;;;;;18.48;10.45;;;3.30;83.40;;;;;;4907402;29;20107;-73
2021/12/03 10:37:15;;;;;;;22.00;9.38;;;3.30;82.80;;;;;;4894234;29;20075;-73
2021/12/03 11:07:16;;;;;;;30.67;11.77;;;3.40;81.90;;;;;;4900303;29;20068;-73
2021/12/03 11:26:51;;;;;;;28.42;11.13;;;3.30;82.60;;;;;;4901848;29;20490;-74
2021/12/03 11:39:28;;;;;;;15.63;6.15;;;3.20;83.80;;;;;;4907479;29;20048;-74
2021/12/03 14:38:17;;;;;;;9.30;3.90;;;3.50;84.20;;;;;;4902269;29;20499;-75
2021/12/03 14:48:30;;;;;;;4.45;1.20;;;3.50;83.50;;;;;;4902837;29;20048;-75
2021/12/03 14:56:03;;;;;;;5.38;2.42;;;3.60;83.40;;;;;;4908761;29;20052;-73
2021/12/03 14:58:37;;;;;;;6.15;2.75;;;3.60;83.50;;;;;;4909025;29;20103;-73
2021/12/03 15:01:16;;;;;;;5.97;3.25;;;3.60;83.30;;;;;;4907126;29;20056;-73
2021/12/03 15:04:03;;;;;;;10.00;3.08;;;3.60;83.00;;;;;;4906796;29;20103;-73
2021/12/03 15:25:12;;;;;;;5.32;2.13;;;3.80;82.20;;;;;;4898237;29;20055;-73
2021/12/03 15:33:08;;;;;;;9.02;3.13;;;3.90;82.00;;;;;;4888260;29;20048;-73
2021/12/03 16:13:28;;;;;;;4.63;1.48;;;4.10;84.90;;;;;;4909631;29;20537;-72
2021/12/03 16:18:58;;;;;;;4.93;3.08;;;4.10;84.90;;;;;;4909811;29;20391;-73
2021/12/03 16:46:14;;;;;;;8.00;4.00;;;4.10;86.20;;;;;;4908579;29;20217;-73
2021/12/03 16:51:47;;;;;;;6.32;4.38;;;4.10;86.80;;;;;;4895015;29;20530;-74
2021/12/03 16:54:18;;;;;;;7.30;2.33;;;4.10;87.00;;;;;;4904499;29;20526;-73
2021/12/03 16:56:46;;;;;;;6.65;3.78;;;4.10;87.20;;;;;;4908618;29;20044;-73
2021/12/03 16:59:14;;;;;;;8.55;4.22;;;4.10;87.40;;;;;;4907908;29;20490;-73
2021/12/03 17:49:56;;;;;;;7.28;6.57;;;4.20;88.60;;;;;;4909604;29;20043;-73
2021/12/03 18:00:05;;;;;;;10.30;7.20;;;4.30;88.60;;;;;;4892702;29;20047;-73
2021/12/03 18:18:21;;;;;;;7.72;7.00;;;4.30;88.70;;;;;;4908104;29;20044;-73
2021/12/03 18:55:56;;;;;;;12.10;9.70;;;4.50;88.90;;;;;;4904473;29;20055;-73
2021/12/03 18:58:25;;;;;;;12.23;10.85;;;4.50;88.90;;;;;;4901420;29;20056;-73
2021/12/03 19:00:51;;;;;;;12.15;10.45;;;4.50;88.90;;;;;;4903888;29;20109;-73
2021/12/03 19:03:25;;;;;;;4.97;4.28;;;4.50;88.90;;;;;;4911520;29;20052;-73
2021/12/03 19:08:48;;;;;;;10.43;8.07;;;4.50;89.00;;;;;;4905715;29;20063;-74
2021/12/03 19:13:41;;;;;;;16.48;11.93;;;4.50;89.10;;;;;;4906260;29;20187;-73
2021/12/03 19:16:10;;;;;;;15.00;9.82;;;4.50;89.20;;;;;;4913181;29;20130;-73
2021/12/03 19:18:38;;;;;;;10.25;9.15;;;4.50;89.20;;;;;;4906077;29;20048;-73
2021/12/03 19:21:10;;;;;;;12.10;10.82;;;4.50;89.20;;;;;;4905499;29;20519;-73
2021/12/03 19:23:35;;;;;;;16.65;10.18;;;4.60;89.20;;;;;;4905051;29;20051;-73
2021/12/03 19:26:02;;;;;;;13.10;11.65;;;4.60;89.20;;;;;;4887095;29;20048;-73
2021/12/03 19:28:29;;;;;;;8.93;8.02;;;4.60;89.20;;;;;;4905001;29;20044;-73
2021/12/03 19:30:56;;;;;;;12.43;11.07;;;4.60;89.20;;;;;;4901996;29;20060;-73
2021/12/03 19:33:23;;;;;;;15.45;9.63;;;4.60;89.30;;;;;;4905217;29;20545;-73
2021/12/03 19:35:49;;;;;;;16.00;13.63;;;4.60;89.30;;;;;;4905741;29;20120;-73
2021/12/03 19:38:17;;;;;;;15.00;11.70;;;4.60;89.20;;;;;;4904201;29;20127;-73
2021/12/03 19:40:51;;;;;;;11.65;9.88;;;4.60;89.30;;;;;;4904859;29;20044;-72
2021/12/03 19:43:24;;;;;;;15.35;13.27;;;4.60;89.20;;;;;;4904951;29;20040;-73
2021/12/03 19:45:57;;;;;;;11.20;10.13;;;4.60;89.30;;;;;;4905816;29;20088;-73
2021/12/03 19:48:25;;;;;;;15.40;12.30;;;4.60;89.20;;;;;;4906144;29;20048;-73
2021/12/03 19:50:56;;;;;;;13.23;11.80;;;4.60;89.20;;;;;;4905838;29;20507;-73
2021/12/03 19:53:28;;;;;;;15.23;13.63;;;4.60;89.20;;;;;;4894271;29;20519;-73
2021/12/03 19:55:54;;;;;;;18.50;15.50;;;4.60;89.20;;;;;;4905693;29;20103;-73
2021/12/03 19:58:20;;;;;;;15.25;13.65;;;4.60;89.20;;;;;;4903334;29;20441;-73
2021/12/03 20:00:49;;;;;;;10.60;9.45;;;4.70;89.20;;;;;;4922202;29;20096;-73
2021/12/03 20:03:15;;;;;;;16.13;14.02;;;4.70;89.20;;;;;;4910979;29;20479;-73
2021/12/03 20:05:41;;;;;;;19.52;15.82;;;4.70;89.10;;;;;;4905041;29;20090;-73
2021/12/03 20:08:08;;;;;;;16.13;11.98;;;4.70;89.20;;;;;;4905923;29;20135;-73
2021/12/03 20:10:43;;;;;;;16.65;14.07;;;4.70;89.10;;;;;;4905170;29;20059;-73
2021/12/03 20:13:10;;;;;;;8.82;7.82;;;4.70;89.10;;;;;;4903461;29;20505;-72
2021/12/03 20:16:03;;;;;;;19.95;15.05;;;4.70;89.10;;;;;;4901951;29;20059;-73
2021/12/03 20:18:36;;;;;;;20.08;17.90;;;4.70;89.00;;;;;;4905701;29;20376;-73
2021/12/03 20:21:05;;;;;;;17.50;13.23;;;4.70;89.00;;;;;;4892562;29;20071;-73
2021/12/03 20:31:18;;;;;;;20.00;16.17;;;4.80;88.80;;;;;;4902166;29;20047;-73
2021/12/03 20:38:58;;;;;;;16.10;12.23;;;4.80;88.80;;;;;;4902567;29;20182;-73
2021/12/03 20:41:36;;;;;;;23.55;17.27;;;4.80;88.70;;;;;;4906897;29;20127;-73
2021/12/03 20:46:49;;;;;;;14.10;11.35;;;4.80;88.60;;;;;;4904838;29;20048;-73
2021/12/03 20:57:12;;;;;;;24.70;18.00;;;4.80;88.50;;;;;;4910396;29;20059;-72
2021/12/03 20:57:28;;;;;;;22.23;17.20;;;4.80;88.60;;;;;;4908606;29;20052;-73
2021/12/03 21:08:31;;;;;;;23.23;15.48;;;4.80;88.60;;;;;;4910577;29;20376;-73
2021/12/03 21:11:03;;;;;;;24.42;18.40;;;4.80;88.60;;;;;;4881608;29;20697;-73
2021/12/03 21:13:36;;;;;;;16.83;13.63;;;4.80;88.60;;;;;;4909902;29;20052;-72
2021/12/03 21:16:25;;;;;;;28.33;18.38;;;4.80;88.60;;;;;;4893317;29;20216;-73
2021/12/03 21:21:41;;;;;;;20.95;15.63;;;4.80;88.60;;;;;;4909250;29;20063;-73
2021/12/03 21:24:08;;;;;;;25.60;16.65;;;4.80;88.60;;;;;;4925558;29;20056;-72
2021/12/03 21:26:38;;;;;;;28.52;20.70;;;4.80;88.60;;;;;;4893493;29;20036;-73
2021/12/03 21:31:56;;;;;;;18.27;13.98;;;4.80;88.50;;;;;;4895233;29;20490;-72
2021/12/03 21:42:19;;;;;;;23.13;15.57;;;4.90;88.50;;;;;;4910151;29;20044;-73